createdAt,value
2023-03-05T00:01:43.288Z,22.50
2023-03-05T00:04:15.718Z,23.40
2023-03-05T00:06:44.757Z,23.30
2023-03-05T00:09:13.738Z,23.50
2023-03-05T00:11:42.495Z,22.50
2023-03-05T00:14:12.435Z,23.90
2023-03-05T00:16:41.322Z,23.50
2023-03-05T00:19:11.809Z,25.20
2023-03-05T00:21:42.551Z,24.90
2023-03-05T00:24:16.838Z,23.70
2023-03-05T00:26:46.353Z,25.10
2023-03-05T00:29:19.025Z,24.40
2023-03-05T00:31:48.874Z,23.50
2023-03-05T00:34:19.440Z,23.70
2023-03-05T00:36:53.339Z,23.10
2023-03-05T00:39:22.822Z,22.50
2023-03-05T00:41:51.639Z,22.60
2023-03-05T00:44:21.437Z,23.10
2023-03-05T00:46:50.590Z,22.50
2023-03-05T00:49:19.481Z,23.70
2023-03-05T00:51:48.259Z,22.20
2023-03-05T00:54:17.209Z,24.00
2023-03-05T00:56:46.769Z,23.50
2023-03-05T00:59:15.701Z,22.40
2023-03-05T01:01:44.768Z,21.80
2023-03-05T01:04:13.581Z,22.00
2023-03-05T01:06:46.850Z,23.20
2023-03-05T01:09:15.718Z,21.70
2023-03-05T01:11:44.805Z,22.10
2023-03-05T01:14:14.628Z,23.10
2023-03-05T01:16:43.463Z,23.60
2023-03-05T01:19:13.978Z,24.10
2023-03-05T01:21:43.315Z,23.10
2023-03-05T01:24:12.182Z,21.50
2023-03-05T01:26:40.924Z,23.90
2023-03-05T01:29:09.712Z,22.20
2023-03-05T01:31:38.875Z,22.60
2023-03-05T01:34:07.853Z,21.70
2023-03-05T01:36:36.738Z,22.50
2023-03-05T01:39:05.740Z,22.30
2023-03-05T01:41:35.658Z,22.20
2023-03-05T01:44:04.656Z,22.50
2023-03-05T01:46:38.893Z,23.90
2023-03-05T01:49:31.051Z,21.50
2023-03-05T01:52:23.558Z,22.60
2023-03-05T01:55:00.227Z,22.30
2023-03-05T01:57:50.400Z,22.20
2023-03-05T02:00:48.667Z,21.60
2023-03-05T02:03:18.101Z,21.80
2023-03-05T02:05:47.007Z,22.30
2023-03-05T02:08:20.311Z,23.10
2023-03-05T02:10:53.228Z,22.30
2023-03-05T02:13:31.967Z,20.60
2023-03-05T02:16:02.338Z,21.20
2023-03-05T02:18:31.237Z,22.10
2023-03-05T02:21:08.296Z,21.40
2023-03-05T02:23:39.492Z,21.60
2023-03-05T02:26:11.615Z,22.60
2023-03-05T02:28:47.725Z,22.40
2023-03-05T02:31:23.624Z,22.50
2023-03-05T02:33:54.214Z,22.00
2023-03-05T02:36:24.101Z,21.80
2023-03-05T02:38:53.826Z,21.10
2023-03-05T02:41:24.874Z,22.20
2023-03-05T02:43:54.063Z,24.60
2023-03-05T02:46:23.477Z,21.80
2023-03-05T02:48:52.270Z,24.30
2023-03-05T02:51:21.162Z,22.60
2023-03-05T02:53:50.057Z,24.10
2023-03-05T02:56:19.426Z,23.50
2023-03-05T02:58:48.290Z,22.00
2023-03-05T03:01:17.225Z,22.10
2023-03-05T03:03:46.360Z,21.70
2023-03-05T03:06:15.080Z,23.20
2023-03-05T03:08:43.860Z,20.60
2023-03-05T03:13:03.290Z,23.40
2023-03-05T03:15:32.508Z,21.20
2023-03-05T03:18:01.342Z,21.80
2023-03-05T03:20:30.174Z,21.80
2023-03-05T03:22:59.014Z,24.60
2023-03-05T03:25:28.036Z,22.50
2023-03-05T03:27:56.881Z,23.10
2023-03-05T03:30:25.655Z,23.40
2023-03-05T03:32:54.435Z,21.70
2023-03-05T03:35:23.298Z,22.50
2023-03-05T03:37:52.083Z,21.70
2023-03-05T03:40:21.193Z,22.40
2023-03-05T03:42:55.083Z,23.30
2023-03-05T03:45:23.846Z,23.00
2023-03-05T03:47:52.640Z,23.30
2023-03-05T03:50:22.044Z,21.80
2023-03-05T03:52:51.477Z,22.60
2023-03-05T03:55:20.324Z,22.50
2023-03-05T03:57:49.211Z,22.70
2023-03-05T04:00:19.349Z,22.20
2023-03-05T04:02:48.255Z,23.70
2023-03-05T04:05:17.309Z,22.60
2023-03-05T04:07:46.076Z,23.00
2023-03-05T04:10:14.797Z,23.80
2023-03-05T04:12:43.834Z,22.60
2023-03-05T04:15:13.090Z,24.90
2023-03-05T04:17:41.876Z,23.10
2023-03-05T04:20:12.179Z,24.80
2023-03-05T04:22:41.081Z,24.30
2023-03-05T04:25:10.643Z,24.40
2023-03-05T04:27:40.572Z,25.60
2023-03-05T04:30:14.891Z,26.70
2023-03-05T04:32:44.108Z,26.30
2023-03-05T04:35:12.972Z,24.90
2023-03-05T04:37:41.976Z,24.50
2023-03-05T04:40:12.285Z,24.00
2023-03-05T04:42:41.433Z,25.40
2023-03-05T04:45:11.162Z,24.60
2023-03-05T04:47:40.333Z,24.80
2023-03-05T04:50:11.122Z,42.80
2023-03-05T04:52:45.640Z,25.60
2023-03-05T04:55:17.085Z,25.20
2023-03-05T04:57:46.074Z,27.60
2023-03-05T05:00:17.823Z,27.30
2023-03-05T05:02:49.457Z,34.00
2023-03-05T05:05:23.400Z,25.90
2023-03-05T05:07:57.620Z,26.00
2023-03-05T05:10:27.408Z,25.40
2023-03-05T05:12:56.288Z,24.70
2023-03-05T05:15:25.246Z,26.60
2023-03-05T05:17:53.971Z,25.90
2023-03-05T05:20:22.854Z,27.60
2023-03-05T05:22:51.704Z,22.90
2023-03-05T05:25:20.516Z,20.70
2023-03-05T05:27:49.253Z,22.20
2023-03-05T05:30:18.091Z,21.40
2023-03-05T05:32:46.854Z,22.40
2023-03-05T05:35:15.786Z,22.50
2023-03-05T05:37:44.618Z,19.80
2023-03-05T05:40:13.796Z,17.90
2023-03-05T05:42:42.580Z,21.60
2023-03-05T05:45:12.622Z,22.20
2023-03-05T05:47:41.441Z,16.90
2023-03-05T05:50:12.610Z,13.30
2023-03-05T05:52:41.442Z,17.70
2023-03-05T05:55:11.322Z,18.20
2023-03-05T05:57:40.376Z,18.80
2023-03-05T06:00:13.242Z,16.00
2023-03-05T06:02:44.306Z,17.30
2023-03-05T06:05:15.451Z,20.60
2023-03-05T06:07:44.452Z,21.40
2023-03-05T06:10:13.451Z,21.30
2023-03-05T06:12:42.387Z,24.70
2023-03-05T06:15:11.484Z,24.30
2023-03-05T06:17:40.410Z,23.60
2023-03-05T06:20:10.698Z,17.50
2023-03-05T06:22:40.131Z,17.40
2023-03-05T06:25:10.393Z,19.00
2023-03-05T06:27:39.797Z,20.50
2023-03-05T06:30:11.572Z,21.20
2023-03-05T06:32:40.312Z,21.80
2023-03-05T06:35:09.559Z,20.80
2023-03-05T06:37:38.425Z,20.10
2023-03-05T06:40:08.958Z,21.20
2023-03-05T06:42:37.702Z,16.80
2023-03-05T06:45:07.941Z,13.30
2023-03-05T06:47:36.842Z,8.40
2023-03-05T06:50:06.892Z,5.60
2023-03-05T06:52:35.796Z,6.40
2023-03-05T06:55:05.213Z,4.50
2023-03-05T06:57:34.466Z,3.60
2023-03-05T07:00:11.282Z,3.40
2023-03-05T07:02:41.117Z,3.90
2023-03-05T07:05:10.508Z,3.90
2023-03-05T07:07:39.637Z,2.50
2023-03-05T07:10:09.674Z,2.30
2023-03-05T07:12:39.074Z,2.20
2023-03-05T07:15:09.384Z,5.00
2023-03-05T07:17:38.233Z,2.20
2023-03-05T07:20:08.652Z,13.00
2023-03-05T07:22:39.304Z,13.80
2023-03-05T07:25:08.903Z,15.20
2023-03-05T07:27:39.329Z,14.70
2023-03-05T07:30:09.405Z,15.50
2023-03-05T07:32:38.185Z,14.40
2023-03-05T07:35:08.513Z,13.70
2023-03-05T07:37:37.529Z,13.80
2023-03-05T07:40:07.652Z,13.80
2023-03-05T07:42:37.160Z,10.00
2023-03-05T07:45:12.328Z,9.90
2023-03-05T07:47:41.444Z,9.30
2023-03-05T07:50:11.561Z,11.20
2023-03-05T07:52:40.411Z,11.30
2023-03-05T07:55:10.589Z,10.10
2023-03-05T07:57:39.739Z,8.60
2023-03-05T08:00:09.904Z,9.50
2023-03-05T08:02:41.633Z,8.70
2023-03-05T08:05:10.708Z,8.00
2023-03-05T08:07:39.682Z,7.40
2023-03-05T08:10:11.052Z,6.10
2023-03-05T08:12:39.905Z,7.90
2023-03-05T08:15:09.504Z,8.00
2023-03-05T08:17:38.446Z,3.20
2023-03-05T08:20:11.253Z,3.10
2023-03-05T08:22:40.180Z,2.70
2023-03-05T08:25:11.061Z,3.10
2023-03-05T08:27:42.437Z,2.90
2023-03-05T08:30:27.532Z,2.00
2023-03-05T08:32:57.243Z,2.10
2023-03-05T08:35:26.333Z,3.10
2023-03-05T08:37:55.225Z,2.70
2023-03-05T08:40:24.954Z,3.00
2023-03-05T08:42:53.825Z,2.40
2023-03-05T08:45:23.728Z,2.60
2023-03-05T08:47:52.603Z,2.50
2023-03-05T08:50:24.317Z,3.00
2023-03-05T08:52:54.012Z,2.00
2023-03-05T08:55:23.047Z,2.60
2023-03-05T08:57:51.853Z,2.10
2023-03-05T09:00:21.195Z,2.30
2023-03-05T09:02:50.180Z,2.40
2023-03-05T09:05:19.648Z,2.90
2023-03-05T09:07:48.962Z,2.30
2023-03-05T09:10:18.701Z,2.70
2023-03-05T09:12:49.550Z,3.20
2023-03-05T09:15:18.664Z,2.90
2023-03-05T09:17:47.574Z,3.50
2023-03-05T09:20:17.279Z,2.40
2023-03-05T09:22:46.083Z,1.60
2023-03-05T09:25:15.147Z,2.40
2023-03-05T09:27:45.597Z,2.20
2023-03-05T09:30:15.483Z,2.40
2023-03-05T09:32:44.528Z,2.10
2023-03-05T09:35:13.328Z,2.20
2023-03-05T09:37:43.072Z,2.50
2023-03-05T09:40:18.194Z,2.90
2023-03-05T09:43:16.122Z,2.20
2023-03-05T09:45:51.691Z,2.00
2023-03-05T09:48:39.697Z,2.00
2023-03-05T09:51:18.625Z,4.60
2023-03-05T09:54:12.399Z,2.60
2023-03-05T09:56:57.623Z,1.90
2023-03-05T09:59:48.263Z,2.00
2023-03-05T10:02:43.924Z,1.80
2023-03-05T10:05:44.113Z,2.00
2023-03-05T10:08:16.873Z,3.90
2023-03-05T10:10:53.223Z,2.40
2023-03-05T10:13:39.760Z,2.20
2023-03-05T10:16:39.642Z,2.00
2023-03-05T10:19:41.138Z,2.20
2023-03-05T10:22:20.134Z,2.50
2023-03-05T10:25:32.755Z,2.30
2023-03-05T10:28:53.639Z,2.00
2023-03-05T10:31:59.494Z,1.90
2023-03-05T10:34:53.866Z,2.30
2023-03-05T10:37:43.433Z,1.70
2023-03-05T10:40:52.599Z,2.30
2023-03-05T10:43:37.966Z,2.10
2023-03-05T10:46:18.837Z,2.20
2023-03-05T14:12:04.926Z,5.10
2023-03-05T14:14:39.324Z,5.40
2023-03-05T14:17:30.660Z,4.00
2023-03-05T14:20:10.707Z,5.50
2023-03-05T14:22:48.279Z,6.20
2023-03-05T14:25:35.315Z,7.00
2023-03-05T14:28:28.408Z,6.20
2023-03-05T14:30:57.956Z,6.70
2023-03-05T14:33:33.551Z,8.10
2023-03-05T14:44:01.142Z,6.20
2023-03-05T14:46:30.033Z,7.20
2023-03-05T14:48:59.558Z,6.50
2023-03-05T14:51:29.442Z,6.60
2023-03-05T14:53:59.085Z,6.40
2023-03-05T14:56:29.284Z,7.20
2023-03-05T14:58:59.099Z,6.90
2023-03-05T15:01:28.178Z,6.10
2023-03-05T15:03:57.538Z,6.80
2023-03-05T15:06:39.729Z,6.60
2023-03-05T15:09:08.719Z,6.60
2023-03-05T15:11:37.569Z,6.50
2023-03-05T15:14:06.708Z,6.20
2023-03-05T15:16:35.514Z,8.00
2023-03-05T15:19:04.394Z,7.70
2023-03-05T15:21:33.304Z,7.90
2023-03-05T15:24:02.287Z,7.00
2023-03-05T15:26:31.438Z,8.60
2023-03-05T15:29:00.510Z,7.70
2023-03-05T15:31:30.477Z,7.40
2023-03-05T15:33:59.647Z,6.90
2023-03-05T15:36:30.064Z,7.40
2023-03-05T15:38:59.487Z,6.70
2023-03-05T15:41:28.420Z,7.50
2023-03-05T15:43:57.283Z,6.70
2023-03-05T15:46:26.571Z,7.00
2023-03-05T15:48:55.533Z,7.30
2023-03-05T15:51:24.461Z,8.30
2023-03-05T15:53:54.664Z,7.30
2023-03-05T15:56:23.434Z,8.10
2023-03-05T15:58:52.852Z,8.20
2023-03-05T16:01:23.735Z,9.70
2023-03-05T16:03:52.860Z,8.70
2023-03-05T16:06:24.524Z,7.40
2023-03-05T16:09:03.759Z,9.10
2023-03-05T16:11:40.242Z,8.80
2023-03-05T16:14:11.007Z,7.70
2023-03-05T16:16:40.081Z,7.00
2023-03-05T16:19:13.455Z,7.50
2023-03-05T16:21:42.947Z,7.50
2023-03-05T16:24:12.439Z,8.10
2023-03-05T16:26:42.516Z,11.50
2023-03-05T16:29:12.134Z,11.10
2023-03-05T16:31:43.366Z,10.00
2023-03-05T16:34:14.435Z,10.00
2023-03-05T16:36:51.064Z,10.00
2023-03-05T16:39:21.832Z,9.70
2023-03-05T16:41:50.852Z,9.30
2023-03-05T16:44:20.763Z,9.40
2023-03-05T16:46:53.393Z,10.90
2023-03-05T16:49:23.076Z,13.50
2023-03-05T16:51:52.028Z,12.60
2023-03-05T16:54:22.418Z,12.00
2023-03-05T16:56:51.303Z,11.70
2023-03-05T16:59:20.670Z,12.00
2023-03-05T17:01:49.606Z,10.50
2023-03-05T17:04:18.473Z,9.60
2023-03-05T17:06:49.615Z,10.80
2023-03-05T17:09:23.807Z,11.70
2023-03-05T17:11:53.787Z,10.00
2023-03-05T17:14:22.709Z,13.00
2023-03-05T17:16:51.817Z,9.80
2023-03-05T17:19:20.788Z,9.70
2023-03-05T17:21:52.517Z,11.10
2023-03-05T17:24:22.782Z,10.30
2023-03-05T17:26:51.859Z,11.80
2023-03-05T17:29:22.704Z,12.80
2023-03-05T17:31:55.145Z,12.60
2023-03-05T17:34:35.941Z,11.40
2023-03-05T17:37:06.301Z,13.70
2023-03-05T17:39:39.642Z,11.70
2023-03-05T17:42:08.626Z,11.10
2023-03-05T17:44:37.786Z,11.20
2023-03-05T17:47:06.822Z,11.80
2023-03-05T17:49:39.664Z,10.80
2023-03-05T17:52:09.158Z,11.10
2023-03-05T17:57:23.262Z,13.00
2023-03-05T17:59:52.576Z,13.50
2023-03-05T18:02:21.626Z,14.20
2023-03-05T18:04:52.338Z,15.60
2023-03-05T18:07:24.400Z,18.30
2023-03-05T18:09:53.455Z,19.00
2023-03-05T18:12:22.351Z,14.20
2023-03-05T18:14:51.323Z,13.20
2023-03-05T18:17:35.284Z,12.80
2023-03-05T18:20:05.429Z,12.90
2023-03-05T18:22:35.141Z,11.30
2023-03-05T18:25:04.099Z,10.90
2023-03-05T18:27:32.962Z,10.30
2023-03-05T18:30:01.932Z,10.00
2023-03-05T18:32:32.154Z,10.80
2023-03-05T18:35:00.989Z,12.00
2023-03-05T18:37:29.935Z,14.10
2023-03-05T18:39:59.187Z,13.00
2023-03-05T18:42:28.059Z,13.20
2023-03-05T18:44:57.118Z,13.90
2023-03-05T18:47:25.978Z,12.70
2023-03-05T18:49:54.716Z,13.90
2023-03-05T18:52:23.528Z,14.40
2023-03-05T18:54:52.357Z,13.70
2023-03-05T18:57:22.007Z,12.90
2023-03-05T18:59:50.826Z,14.10
2023-03-05T19:02:19.809Z,13.30
2023-03-05T19:04:48.605Z,13.90
2023-03-05T19:07:17.552Z,12.50
2023-03-05T19:09:59.527Z,13.00
2023-03-05T19:12:32.066Z,12.50
2023-03-05T19:15:05.319Z,12.90
2023-03-05T19:17:34.342Z,11.60
2023-03-05T19:20:06.656Z,11.60
2023-03-05T19:22:35.604Z,11.10
2023-03-05T19:25:05.454Z,11.60
2023-03-05T19:27:35.102Z,10.00
2023-03-05T19:30:06.198Z,11.60
2023-03-05T19:32:35.473Z,10.30
2023-03-05T19:35:04.551Z,10.40
2023-03-05T19:37:33.425Z,11.00
2023-03-05T19:40:02.563Z,10.40
2023-03-05T19:42:31.555Z,9.90
2023-03-05T19:45:00.486Z,11.40
2023-03-05T19:47:30.012Z,10.40
2023-03-05T19:50:00.451Z,10.00
2023-03-05T19:52:29.333Z,9.90
2023-03-05T19:54:58.162Z,10.90
2023-03-05T19:57:27.473Z,10.60
2023-03-05T19:59:56.311Z,11.10
2023-03-05T20:02:26.225Z,10.30
2023-03-05T20:04:56.152Z,11.10
2023-03-05T20:07:25.036Z,10.40
2023-03-05T20:09:55.688Z,10.90
2023-03-05T20:12:24.849Z,12.10
2023-03-05T20:14:54.362Z,10.40
2023-03-05T20:17:23.267Z,12.50
2023-03-05T20:19:52.156Z,11.00
2023-03-05T20:22:21.174Z,11.20
2023-03-05T20:24:50.173Z,11.20
2023-03-05T20:27:19.171Z,11.20
2023-03-05T20:29:48.175Z,11.00
2023-03-05T20:32:17.149Z,10.90
2023-03-05T20:34:46.218Z,12.20
2023-03-05T20:37:15.070Z,11.80
2023-03-05T20:39:58.160Z,10.30
2023-03-05T20:42:27.045Z,10.00
2023-03-05T20:44:56.776Z,11.10
2023-03-05T20:47:47.772Z,11.70
2023-03-05T20:50:17.134Z,11.30
2023-03-05T20:52:46.278Z,12.60
2023-03-05T20:55:15.176Z,13.40
2023-03-05T20:57:45.721Z,12.70
2023-03-05T21:00:15.368Z,13.20
2023-03-05T21:02:44.224Z,12.50
2023-03-05T21:05:13.419Z,12.80
2023-03-05T21:07:42.323Z,12.90
2023-03-05T21:10:12.468Z,13.30
2023-03-05T21:12:41.229Z,14.70
2023-03-05T21:15:12.876Z,13.60
2023-03-05T21:17:44.908Z,14.40
2023-03-05T21:20:32.053Z,14.30
2023-03-05T21:23:00.923Z,14.70
2023-03-05T21:25:31.608Z,13.60
2023-03-05T21:28:29.736Z,12.60
2023-03-05T21:30:58.620Z,12.80
2023-03-05T21:33:30.242Z,12.40
2023-03-05T21:35:59.144Z,12.30
2023-03-05T21:38:30.608Z,12.20
2023-03-05T21:40:59.823Z,12.30
2023-03-05T21:43:31.374Z,15.80
2023-03-05T21:46:03.174Z,13.90
2023-03-05T21:48:32.256Z,12.80
2023-03-05T21:51:01.079Z,14.50
2023-03-05T21:53:29.917Z,16.20
2023-03-05T21:56:34.417Z,15.10
2023-03-05T21:59:03.356Z,15.60
2023-03-05T22:01:32.326Z,16.00
2023-03-05T22:04:01.363Z,16.80
2023-03-05T22:06:30.609Z,17.00
2023-03-05T22:08:59.536Z,15.70
2023-03-05T22:11:28.688Z,16.40
2023-03-05T22:13:57.459Z,15.20
2023-03-05T22:16:28.205Z,15.60
2023-03-05T22:18:56.957Z,15.00
2023-03-05T22:21:27.726Z,15.60
2023-03-05T22:23:57.761Z,16.60
2023-03-05T22:26:34.773Z,14.50
2023-03-05T22:29:04.613Z,16.20
2023-03-05T22:31:33.448Z,15.50
2023-03-05T22:34:02.281Z,15.60
2023-03-05T22:36:31.192Z,18.20
2023-03-05T22:39:00.049Z,16.30
2023-03-05T22:41:28.751Z,16.40
2023-03-05T22:43:57.778Z,17.20
2023-03-05T22:46:27.957Z,16.50
2023-03-05T22:48:56.986Z,19.20
2023-03-05T22:51:25.888Z,16.50
2023-03-05T22:53:54.678Z,17.00
2023-03-05T22:56:23.462Z,16.20
2023-03-05T22:58:52.266Z,16.80
2023-03-05T23:01:25.351Z,17.00
2023-03-05T23:05:00.403Z,17.90
2023-03-05T23:07:34.569Z,16.60
2023-03-05T23:10:26.942Z,17.40
2023-03-05T23:12:58.699Z,16.00
2023-03-05T23:15:37.683Z,15.60
2023-03-05T23:18:08.148Z,15.30
2023-03-05T23:20:37.865Z,15.20
2023-03-05T23:23:06.825Z,15.90
2023-03-05T23:25:36.881Z,15.40
2023-03-05T23:28:05.783Z,14.40
2023-03-05T23:30:39.030Z,12.80
2023-03-05T23:33:15.417Z,12.80
2023-03-05T23:35:53.330Z,12.60
2023-03-05T23:38:22.773Z,11.80
2023-03-05T23:40:54.721Z,8.50
2023-03-05T23:43:25.350Z,11.00
2023-03-05T23:45:57.675Z,8.80
2023-03-05T23:48:27.437Z,10.20
2023-03-05T23:50:56.778Z,8.60
2023-03-05T23:53:29.345Z,10.80
2023-03-05T23:55:58.066Z,10.40
2023-03-05T23:58:26.920Z,9.30
